Time;durP1;ratioP1;P1;durP2;ratioP2;P2;SDS_P1;SDS_P2;PMS_P1;PMS_P2;Temp;Humidity;BMP_temperature;BMP_pressure;BME280_temperature;BME280_humidity;BME280_pressure;Samples;Min_cycle;Max_cycle;Signal;HPM_P1;HPM_P2
2024/02/11 00:02:03;;;;;;;15.57;11.82;;;10.40;99.90;;;;;;5012123;28;20033;-48
2024/02/11 00:04:29;;;;;;;15.23;12.27;;;10.40;99.90;;;;;;5010125;28;20025;-47
2024/02/11 00:06:55;;;;;;;17.52;12.27;;;10.40;99.90;;;;;;4994224;28;20493;-48
2024/02/11 00:09:20;;;;;;;17.95;12.35;;;10.40;99.90;;;;;;5011384;28;20045;-51
2024/02/11 00:11:46;;;;;;;16.00;11.20;;;10.40;99.90;;;;;;5011152;28;20022;-48
2024/02/11 00:14:11;;;;;;;17.80;11.10;;;10.40;99.90;;;;;;5011001;28;20052;-56
2024/02/11 00:16:37;;;;;;;16.48;11.02;;;10.30;99.90;;;;;;5027864;28;20041;-51
2024/02/11 00:19:03;;;;;;;17.67;11.15;;;10.30;99.90;;;;;;5030798;28;20534;-49
2024/02/11 00:21:28;;;;;;;18.65;12.55;;;10.30;99.90;;;;;;5030038;28;20041;-48
2024/02/11 00:23:54;;;;;;;18.92;13.73;;;10.30;99.90;;;;;;5025741;28;20399;-53
2024/02/11 00:26:19;;;;;;;19.42;12.18;;;10.20;99.90;;;;;;5029441;28;20033;-49
2024/02/11 00:28:45;;;;;;;19.58;11.50;;;10.20;99.90;;;;;;5031245;28;20026;-49
2024/02/11 00:31:11;;;;;;;19.52;12.05;;;10.20;99.90;;;;;;5030828;28;20040;-50
2024/02/11 00:33:39;;;;;;;17.92;12.20;;;10.20;99.90;;;;;;5030708;28;20398;-51
2024/02/11 00:36:05;;;;;;;13.18;10.52;;;10.30;99.90;;;;;;5010874;28;20037;-51
2024/02/11 00:38:31;;;;;;;16.83;12.60;;;10.20;99.90;;;;;;5030790;28;20030;-51
2024/02/11 00:40:57;;;;;;;17.85;11.93;;;10.30;99.90;;;;;;5029234;28;20110;-50
2024/02/11 00:43:22;;;;;;;21.98;12.02;;;10.20;99.90;;;;;;5030496;28;20056;-49
2024/02/11 00:45:48;;;;;;;16.13;12.50;;;10.20;99.90;;;;;;5012609;28;20085;-52
2024/02/11 00:48:13;;;;;;;19.90;11.55;;;10.20;99.90;;;;;;5030430;28;20470;-48
2024/02/11 00:50:40;;;;;;;16.10;11.23;;;10.10;99.90;;;;;;5012766;28;20391;-49
2024/02/11 00:53:06;;;;;;;15.98;11.32;;;10.10;99.90;;;;;;5030442;28;20025;-53
2024/02/11 00:55:35;;;;;;;15.82;12.13;;;10.10;99.90;;;;;;5030280;28;20061;-49
2024/02/11 00:58:04;;;;;;;15.23;11.88;;;10.00;99.90;;;;;;5030515;28;20391;-48
2024/02/11 01:00:31;;;;;;;18.33;12.25;;;10.10;99.90;;;;;;5012666;28;20060;-54
2024/02/11 01:02:57;;;;;;;20.08;13.75;;;10.10;99.90;;;;;;5029872;28;20108;-47
2024/02/11 01:05:23;;;;;;;17.20;12.90;;;10.20;99.90;;;;;;5029526;28;20108;-50
2024/02/11 01:07:50;;;;;;;19.90;12.70;;;10.10;99.90;;;;;;5014398;28;20018;-46
2024/02/11 01:10:16;;;;;;;16.63;13.82;;;10.10;99.90;;;;;;5011773;28;20030;-45
2024/02/11 01:12:44;;;;;;;19.75;13.65;;;10.10;99.90;;;;;;5013002;28;20502;-48
2024/02/11 01:15:13;;;;;;;18.65;13.82;;;10.10;99.90;;;;;;5029941;23;20042;-46
2024/02/11 01:17:40;;;;;;;18.15;12.82;;;10.30;99.90;;;;;;5009845;28;20073;-45
2024/02/11 01:20:08;;;;;;;24.65;14.50;;;10.10;99.90;;;;;;5012830;28;20026;-47
2024/02/11 01:22:33;;;;;;;19.92;14.40;;;10.10;99.90;;;;;;5012684;28;20028;-46
2024/02/11 01:24:59;;;;;;;21.20;15.00;;;10.10;99.90;;;;;;5012280;28;20406;-46
2024/02/11 01:27:24;;;;;;;33.08;23.20;;;10.10;99.90;;;;;;5012622;28;20036;-49
2024/02/11 01:29:50;;;;;;;30.65;23.02;;;10.00;99.90;;;;;;5012580;28;20028;-42
2024/02/11 01:32:15;;;;;;;32.80;22.50;;;10.10;99.90;;;;;;5012591;28;20026;-49
2024/02/11 01:34:41;;;;;;;18.90;14.65;;;10.10;99.90;;;;;;5012191;28;20033;-47
2024/02/11 01:37:07;;;;;;;18.52;14.27;;;10.10;99.90;;;;;;4995170;28;20113;-49
2024/02/11 01:39:33;;;;;;;17.58;13.93;;;10.10;99.90;;;;;;5013064;28;20079;-44
2024/02/11 01:42:02;;;;;;;20.75;13.68;;;10.10;99.90;;;;;;5012375;28;20069;-44
2024/02/11 01:44:28;;;;;;;19.33;14.68;;;10.10;99.90;;;;;;4994391;28;20049;-45
2024/02/11 01:46:54;;;;;;;18.73;14.32;;;10.10;99.90;;;;;;5012306;28;20025;-44
2024/02/11 01:49:22;;;;;;;25.00;15.80;;;10.10;99.90;;;;;;4994773;28;20026;-48
2024/02/11 01:51:48;;;;;;;27.13;15.25;;;10.10;99.90;;;;;;5012317;28;20057;-46
2024/02/11 01:54:16;;;;;;;27.75;16.95;;;10.00;99.90;;;;;;5011763;28;20391;-45
2024/02/11 01:56:42;;;;;;;22.83;15.80;;;10.10;99.90;;;;;;4994564;28;20022;-46
2024/02/11 01:59:08;;;;;;;24.83;17.38;;;10.10;99.90;;;;;;5012054;28;20488;-47
2024/02/11 02:01:35;;;;;;;20.52;17.00;;;10.10;99.90;;;;;;4994796;28;20476;-45
2024/02/11 02:04:01;;;;;;;25.73;16.38;;;10.00;99.90;;;;;;5011615;28;20072;-49
2024/02/11 02:06:27;;;;;;;28.80;17.60;;;10.00;99.90;;;;;;5012010;28;20026;-45
2024/02/11 02:08:52;;;;;;;24.85;17.17;;;10.00;99.90;;;;;;5011648;28;20026;-43
2024/02/11 02:11:19;;;;;;;25.63;18.58;;;10.00;99.90;;;;;;5011974;28;20439;-46
2024/02/11 02:13:45;;;;;;;25.65;16.73;;;10.00;99.90;;;;;;5011835;28;20029;-45
2024/02/11 02:16:10;;;;;;;24.08;17.08;;;9.90;99.90;;;;;;5011688;28;20124;-47
2024/02/11 02:18:36;;;;;;;23.90;17.83;;;9.90;99.90;;;;;;5012040;28;20038;-45
2024/02/11 02:21:04;;;;;;;28.73;17.98;;;9.90;99.90;;;;;;5011768;28;20080;-45
2024/02/11 02:23:30;;;;;;;25.83;16.45;;;9.90;99.90;;;;;;5011735;28;20022;-46
2024/02/11 02:25:57;;;;;;;25.75;17.50;;;9.90;99.90;;;;;;5011485;28;20335;-45
2024/02/11 02:28:23;;;;;;;34.20;17.83;;;9.90;99.90;;;;;;5011675;28;20044;-47
2024/02/11 02:30:48;;;;;;;31.05;18.08;;;9.80;99.90;;;;;;5011832;28;20491;-44
2024/02/11 02:33:14;;;;;;;24.35;17.33;;;9.80;99.90;;;;;;4994267;28;20040;-46
2024/02/11 02:35:39;;;;;;;28.98;17.02;;;9.80;99.90;;;;;;5011975;28;20022;-48
2024/02/11 02:38:05;;;;;;;24.55;16.65;;;9.80;99.90;;;;;;4993985;28;20022;-50
2024/02/11 02:40:32;;;;;;;24.10;17.55;;;9.70;99.90;;;;;;4994188;28;20029;-46
2024/02/11 02:42:57;;;;;;;29.27;17.88;;;9.70;99.90;;;;;;5011546;28;20080;-47
2024/02/11 02:45:23;;;;;;;25.10;16.25;;;9.70;99.90;;;;;;4994198;28;20029;-50
2024/02/11 02:47:49;;;;;;;23.75;17.48;;;9.70;99.90;;;;;;5010848;28;20495;-47
2024/02/11 02:50:15;;;;;;;26.40;17.65;;;9.80;99.90;;;;;;5018131;28;20088;-44
2024/02/11 02:52:43;;;;;;;22.98;18.13;;;9.80;99.90;;;;;;5016101;28;20030;-44
2024/02/11 02:55:08;;;;;;;30.67;18.77;;;9.80;99.90;;;;;;4998397;28;20034;-44
2024/02/11 02:57:35;;;;;;;28.30;18.45;;;9.80;99.90;;;;;;5015827;28;20040;-46
2024/02/11 03:00:08;;;;;;;29.95;18.73;;;9.90;99.90;;;;;;5015544;28;20029;-45
2024/02/11 03:02:34;;;;;;;25.30;16.98;;;9.90;99.90;;;;;;5015230;28;20056;-47
2024/02/11 03:05:02;;;;;;;24.63;17.52;;;10.00;99.90;;;;;;5014915;28;20065;-48
2024/02/11 03:07:27;;;;;;;26.80;18.70;;;10.00;99.90;;;;;;5014975;28;20472;-45
2024/02/11 03:09:53;;;;;;;24.00;17.75;;;10.00;99.90;;;;;;5015317;28;20018;-46
2024/02/11 03:12:18;;;;;;;26.45;16.90;;;10.00;99.90;;;;;;5015045;28;20033;-46
2024/02/11 03:14:44;;;;;;;24.00;17.33;;;10.00;99.90;;;;;;5014889;28;20030;-44
2024/02/11 03:17:09;;;;;;;20.40;15.73;;;10.10;99.90;;;;;;5015056;28;20049;-44
2024/02/11 03:19:35;;;;;;;28.77;13.40;;;10.10;99.90;;;;;;5015491;28;20394;-48
2024/02/11 03:22:00;;;;;;;14.38;11.20;;;10.10;99.90;;;;;;5015815;28;20037;-49
2024/02/11 03:24:26;;;;;;;9.85;8.25;;;10.00;99.90;;;;;;5015125;28;20065;-45
2024/02/11 03:26:51;;;;;;;9.73;7.97;;;10.00;99.90;;;;;;5014898;28;20029;-45
2024/02/11 03:29:20;;;;;;;10.00;6.70;;;10.10;99.90;;;;;;5014700;28;20037;-49
2024/02/11 03:31:46;;;;;;;11.25;7.20;;;10.00;99.90;;;;;;5014711;28;20021;-46
2024/02/11 03:34:11;;;;;;;9.88;6.72;;;10.00;99.90;;;;;;5014385;28;20022;-47
2024/02/11 03:36:38;;;;;;;6.55;5.18;;;10.00;99.90;;;;;;5014517;28;20109;-49
2024/02/11 03:39:11;;;;;;;4.43;4.00;;;10.00;99.90;;;;;;5014536;28;20030;-45
2024/02/11 03:41:36;;;;;;;4.68;3.83;;;10.00;99.90;;;;;;5014633;28;20029;-44
2024/02/11 03:44:02;;;;;;;3.20;2.90;;;9.90;99.90;;;;;;4996460;28;20026;-43
2024/02/11 03:46:28;;;;;;;3.63;3.30;;;9.90;99.90;;;;;;5014195;28;20113;-46
2024/02/11 03:48:56;;;;;;;3.10;2.58;;;9.90;99.90;;;;;;5014359;28;20088;-43
2024/02/11 03:51:23;;;;;;;2.58;2.35;;;9.80;99.90;;;;;;5014706;28;20018;-44
2024/02/11 03:53:50;;;;;;;2.22;2.03;;;9.80;99.90;;;;;;5014340;28;20382;-46
2024/02/11 03:56:21;;;;;;;1.92;1.70;;;9.80;99.90;;;;;;5014130;28;20030;-51
2024/02/11 03:58:49;;;;;;;2.55;1.35;;;9.80;99.90;;;;;;5014121;28;20109;-46
2024/02/11 04:01:15;;;;;;;0.93;0.93;;;9.70;99.90;;;;;;5014186;28;20029;-47
2024/02/11 04:03:42;;;;;;;1.02;1.02;;;9.70;99.90;;;;;;5014100;28;20391;-45
2024/02/11 04:06:08;;;;;;;0.80;0.80;;;9.70;99.90;;;;;;5013948;28;20029;-50
2024/02/11 04:08:34;;;;;;;0.70;0.70;;;9.60;99.90;;;;;;5013992;28;20026;-48
2024/02/11 04:11:00;;;;;;;0.70;0.70;;;9.60;99.90;;;;;;5014304;28;20298;-44
2024/02/11 04:13:26;;;;;;;0.70;0.70;;;9.50;99.90;;;;;;5014261;28;20022;-45
2024/02/11 04:15:56;;;;;;;0.77;0.77;;;9.50;99.90;;;;;;5014211;28;20040;-45
2024/02/11 04:18:23;;;;;;;0.50;0.50;;;9.50;99.90;;;;;;4996556;28;20495;-46
2024/02/11 04:20:49;;;;;;;0.47;0.47;;;9.50;99.90;;;;;;5014200;28;20033;-48
2024/02/11 04:23:16;;;;;;;1.17;0.60;;;9.50;99.90;;;;;;5014135;28;20073;-45
2024/02/11 04:25:45;;;;;;;0.90;0.68;;;9.50;99.90;;;;;;5013764;28;20033;-44
2024/02/11 04:28:11;;;;;;;0.70;0.70;;;9.40;99.90;;;;;;5013983;28;20072;-46
2024/02/11 04:30:38;;;;;;;0.50;0.50;;;9.40;99.90;;;;;;4996356;28;20065;-45
2024/02/11 04:33:04;;;;;;;0.77;0.77;;;9.40;99.90;;;;;;5013795;28;20022;-46
2024/02/11 04:35:31;;;;;;;0.60;0.60;;;9.30;99.90;;;;;;5013629;28;20108;-45
2024/02/11 04:37:59;;;;;;;0.60;0.60;;;9.30;99.90;;;;;;5012441;28;20084;-47
2024/02/11 04:40:25;;;;;;;0.70;0.70;;;9.30;99.90;;;;;;5013934;28;20030;-45
2024/02/11 04:42:56;;;;;;;0.55;0.55;;;9.30;99.90;;;;;;5013657;28;20467;-45
2024/02/11 04:45:23;;;;;;;1.10;0.70;;;9.30;99.90;;;;;;5013374;28;20131;-50
2024/02/11 04:47:59;;;;;;;0.90;0.90;;;9.30;99.90;;;;;;5013562;28;20026;-46
2024/02/11 04:50:29;;;;;;;0.90;0.80;;;9.30;99.90;;;;;;4995833;28;20075;-47
2024/02/11 04:52:58;;;;;;;2.40;0.50;;;9.30;99.90;;;;;;5013322;28;20495;-48
2024/02/11 04:55:28;;;;;;;0.75;0.63;;;9.30;99.90;;;;;;5013031;28;20025;-45
2024/02/11 04:58:01;;;;;;;0.93;0.93;;;9.30;99.90;;;;;;5013583;28;20500;-47
2024/02/11 05:00:28;;;;;;;4.72;0.88;;;9.30;99.90;;;;;;5013554;28;20045;-46
2024/02/11 05:02:56;;;;;;;0.77;0.70;;;9.30;99.90;;;;;;5014235;28;20026;-43
2024/02/11 05:05:28;;;;;;;0.77;0.77;;;9.20;99.90;;;;;;5013482;28;20487;-47
2024/02/11 05:08:03;;;;;;;1.20;0.70;;;9.20;99.90;;;;;;5013138;28;20026;-45
2024/02/11 05:10:37;;;;;;;1.60;0.70;;;9.20;99.90;;;;;;5012745;28;20394;-49
2024/02/11 05:13:04;;;;;;;0.82;0.82;;;9.20;99.90;;;;;;4995411;28;20265;-48
2024/02/11 05:15:31;;;;;;;1.30;1.05;;;9.20;99.90;;;;;;5012661;28;20045;-45
2024/02/11 05:17:58;;;;;;;1.15;1.02;;;9.20;99.90;;;;;;4995543;28;20022;-50
2024/02/11 05:20:25;;;;;;;2.25;1.25;;;9.20;99.90;;;;;;5013062;28;20032;-45
2024/02/11 05:22:52;;;;;;;1.88;1.15;;;9.20;99.90;;;;;;5013227;28;20487;-46
2024/02/11 05:25:21;;;;;;;1.25;1.10;;;9.20;99.90;;;;;;4994911;28;20080;-46
2024/02/11 05:27:58;;;;;;;1.00;0.95;;;9.20;99.90;;;;;;5013030;28;20459;-45
2024/02/11 05:30:25;;;;;;;1.25;1.15;;;9.20;99.90;;;;;;5013112;28;20033;-46
2024/02/11 05:32:53;;;;;;;1.27;1.20;;;9.20;99.90;;;;;;5011771;28;20380;-43
2024/02/11 05:35:23;;;;;;;1.27;1.17;;;9.30;99.90;;;;;;5013009;28;20495;-45
2024/02/11 05:37:57;;;;;;;1.30;1.20;;;9.30;99.90;;;;;;5013288;28;20025;-45
2024/02/11 05:40:23;;;;;;;1.42;1.08;;;9.30;99.90;;;;;;5013550;28;20033;-45
2024/02/11 05:42:49;;;;;;;1.85;1.75;;;9.30;99.90;;;;;;5013217;28;20036;-43
2024/02/11 05:45:16;;;;;;;1.83;1.63;;;9.20;99.90;;;;;;5012661;28;20037;-44
2024/02/11 05:47:42;;;;;;;1.40;1.38;;;9.30;99.90;;;;;;5011375;28;20483;-46
2024/02/11 05:50:08;;;;;;;1.60;1.50;;;9.20;99.90;;;;;;5012692;28;20510;-47
2024/02/11 05:52:35;;;;;;;5.70;1.75;;;9.20;99.90;;;;;;5012447;28;20453;-47
2024/02/11 05:55:02;;;;;;;1.73;1.63;;;9.30;99.90;;;;;;5012087;28;20034;-48
2024/02/11 05:57:28;;;;;;;4.13;1.85;;;9.20;99.90;;;;;;5012247;28;20032;-52
2024/02/11 05:59:56;;;;;;;4.78;1.83;;;9.20;99.90;;;;;;5012213;28;20025;-47
2024/02/11 06:02:21;;;;;;;3.85;1.92;;;9.20;99.90;;;;;;5012279;28;20120;-45
2024/02/11 06:04:52;;;;;;;4.95;2.60;;;9.20;99.90;;;;;;5012021;28;20062;-45
2024/02/11 06:07:19;;;;;;;2.45;1.80;;;9.20;99.90;;;;;;5012033;28;20108;-48
2024/02/11 06:09:45;;;;;;;3.97;2.13;;;9.10;99.90;;;;;;5012316;28;20122;-51
2024/02/11 06:12:12;;;;;;;3.55;2.58;;;9.10;99.90;;;;;;5012351;28;20108;-46
2024/02/11 06:14:38;;;;;;;2.85;2.55;;;9.10;99.90;;;;;;5012285;28;20038;-46
2024/02/11 06:17:06;;;;;;;4.38;2.63;;;9.20;99.90;;;;;;5011061;28;20056;-45
2024/02/11 06:19:33;;;;;;;5.47;3.38;;;9.10;99.90;;;;;;5012528;28;20451;-47
2024/02/11 06:22:01;;;;;;;3.33;3.05;;;9.10;99.90;;;;;;5011157;28;20058;-49
2024/02/11 06:24:27;;;;;;;10.63;3.60;;;9.10;99.90;;;;;;5012021;28;20026;-50
2024/02/11 06:26:54;;;;;;;7.32;3.50;;;9.00;99.90;;;;;;5012157;28;20029;-47
2024/02/11 06:29:19;;;;;;;4.47;3.03;;;9.10;99.90;;;;;;5012120;28;20029;-48
2024/02/11 06:31:49;;;;;;;6.20;3.70;;;9.00;99.90;;;;;;5012028;28;20454;-48
2024/02/11 06:34:15;;;;;;;5.65;3.95;;;9.00;99.90;;;;;;5012221;28;20022;-47
2024/02/11 06:36:41;;;;;;;10.18;4.85;;;9.00;99.90;;;;;;5012125;28;20501;-46
2024/02/11 06:39:10;;;;;;;4.35;3.95;;;9.00;99.90;;;;;;5011939;28;20018;-48
2024/02/11 06:41:38;;;;;;;7.95;3.97;;;8.90;99.90;;;;;;5011915;28;20018;-50
2024/02/11 06:44:06;;;;;;;8.82;4.63;;;8.90;99.90;;;;;;5012163;28;20026;-45
2024/02/11 06:46:32;;;;;;;7.10;4.30;;;8.90;99.90;;;;;;5012696;28;20030;-46
2024/02/11 06:48:57;;;;;;;6.45;4.55;;;8.90;99.90;;;;;;5012474;28;20030;-46
2024/02/11 06:51:23;;;;;;;7.82;4.18;;;8.90;99.90;;;;;;4994603;28;20442;-48
2024/02/11 06:53:49;;;;;;;7.75;4.47;;;8.80;99.90;;;;;;4994061;28;20018;-46
2024/02/11 06:56:14;;;;;;;6.60;4.97;;;8.90;99.90;;;;;;5011812;28;20029;-45
2024/02/11 06:58:41;;;;;;;7.47;4.70;;;8.90;99.90;;;;;;5011846;28;20026;-45
2024/02/11 07:01:09;;;;;;;8.27;5.25;;;8.90;99.90;;;;;;5011674;28;20044;-47
2024/02/11 07:03:37;;;;;;;15.48;5.80;;;8.90;99.90;;;;;;5011660;28;20093;-49
2024/02/11 07:06:06;;;;;;;9.25;6.15;;;8.90;99.90;;;;;;5011474;28;20025;-47
2024/02/11 07:08:32;;;;;;;11.57;5.90;;;8.80;99.90;;;;;;5011717;28;20026;-48
2024/02/11 07:10:58;;;;;;;9.23;5.93;;;8.90;99.90;;;;;;5011912;28;20026;-47
2024/02/11 07:13:25;;;;;;;12.40;6.30;;;8.90;99.90;;;;;;5011721;28;20022;-46
2024/02/11 07:15:50;;;;;;;15.43;6.82;;;8.90;99.90;;;;;;5027520;23;20025;-41
2024/02/11 07:18:16;;;;;;;10.73;6.10;;;8.90;99.90;;;;;;5029598;28;20034;-40
2024/02/11 07:20:42;;;;;;;13.48;7.03;;;8.90;99.90;;;;;;5027028;28;20026;-39
2024/02/11 07:23:07;;;;;;;16.65;6.78;;;8.90;99.90;;;;;;5012247;28;20538;-39
2024/02/11 07:25:33;;;;;;;13.95;7.75;;;8.90;99.90;;;;;;5019848;28;20029;-38
2024/02/11 07:27:59;;;;;;;11.98;7.97;;;8.90;99.90;;;;;;5030790;28;20343;-39
2024/02/11 07:30:25;;;;;;;14.13;7.55;;;8.90;99.90;;;;;;5030818;28;20021;-43
2024/02/11 07:32:51;;;;;;;11.27;7.63;;;9.00;99.90;;;;;;5032390;28;20025;-42
2024/02/11 07:35:18;;;;;;;12.32;8.00;;;9.00;99.90;;;;;;5034419;28;20451;-37
2024/02/11 07:37:44;;;;;;;16.40;8.18;;;9.10;99.90;;;;;;5034366;28;20021;-43
2024/02/11 07:40:11;;;;;;;14.90;8.60;;;9.10;99.90;;;;;;5034520;28;20033;-40
2024/02/11 07:42:37;;;;;;;15.40;8.65;;;9.10;99.90;;;;;;5017463;28;20120;-41
2024/02/11 07:45:03;;;;;;;16.42;8.65;;;9.10;99.90;;;;;;5033880;28;20100;-41
2024/02/11 07:47:30;;;;;;;16.65;8.70;;;9.10;99.90;;;;;;5016692;28;20057;-40
2024/02/11 07:49:56;;;;;;;18.30;9.00;;;9.10;99.90;;;;;;5034161;28;20049;-40
2024/02/11 07:52:22;;;;;;;15.38;7.65;;;9.20;99.90;;;;;;5034202;28;20147;-40
2024/02/11 07:54:48;;;;;;;15.27;8.43;;;9.30;99.90;;;;;;5034105;28;20166;-40
2024/02/11 07:57:15;;;;;;;11.07;8.18;;;9.30;99.90;;;;;;5034079;28;20487;-40
2024/02/11 07:59:42;;;;;;;21.50;8.18;;;9.40;99.90;;;;;;5034207;28;20540;-39
2024/02/11 08:02:08;;;;;;;17.35;8.85;;;9.30;99.90;;;;;;5034040;28;20048;-42
2024/02/11 08:04:34;;;;;;;17.02;8.85;;;9.30;99.90;;;;;;5033712;28;20080;-40
2024/02/11 08:06:59;;;;;;;15.45;7.78;;;9.30;99.90;;;;;;5033796;28;20493;-41
2024/02/11 08:09:25;;;;;;;16.13;8.40;;;9.30;99.90;;;;;;5034863;28;20030;-40
2024/02/11 08:11:51;;;;;;;12.43;8.15;;;9.40;99.90;;;;;;5034464;28;20108;-41
2024/02/11 08:14:17;;;;;;;14.98;8.77;;;9.30;99.90;;;;;;5034027;28;20034;-39
2024/02/11 08:16:43;;;;;;;16.83;7.68;;;9.30;99.90;;;;;;5034555;28;20049;-42
2024/02/11 08:19:08;;;;;;;13.55;8.75;;;9.40;99.90;;;;;;5034496;28;20467;-39
2024/02/11 08:21:35;;;;;;;21.88;8.85;;;9.40;99.90;;;;;;5035545;28;20024;-40
2024/02/11 08:24:02;;;;;;;14.35;7.20;;;9.50;99.90;;;;;;5035304;28;20478;-41
2024/02/11 08:26:28;;;;;;;13.90;7.68;;;9.50;99.90;;;;;;5034936;28;20491;-38
2024/02/11 08:28:59;;;;;;;19.77;8.05;;;9.50;99.90;;;;;;5017591;28;20031;-42
2024/02/11 08:31:24;;;;;;;15.27;8.90;;;9.50;99.90;;;;;;5035165;28;20429;-42
2024/02/11 08:33:50;;;;;;;13.02;7.38;;;9.50;99.90;;;;;;5033517;28;20036;-38
2024/02/11 08:36:15;;;;;;;18.92;8.15;;;9.50;99.90;;;;;;5033388;28;20064;-38
2024/02/11 08:38:41;;;;;;;12.15;8.30;;;9.50;99.90;;;;;;5033204;28;20065;-40
2024/02/11 08:41:07;;;;;;;14.75;7.85;;;9.60;99.90;;;;;;5033398;28;20025;-39
2024/02/11 08:43:33;;;;;;;13.57;7.80;;;9.50;99.90;;;;;;5033117;28;20481;-38
2024/02/11 08:46:03;;;;;;;15.45;7.72;;;9.60;99.90;;;;;;5033018;28;20029;-39
2024/02/11 08:48:31;;;;;;;15.48;8.15;;;9.60;99.90;;;;;;5014433;28;20029;-43
2024/02/11 08:50:57;;;;;;;16.23;7.70;;;9.60;99.90;;;;;;5025170;28;20156;-42
2024/02/11 08:53:23;;;;;;;14.07;8.02;;;9.50;99.90;;;;;;5013400;28;20105;-42
2024/02/11 08:55:48;;;;;;;16.85;9.00;;;9.60;99.90;;;;;;5025858;28;20563;-39
2024/02/11 08:58:17;;;;;;;11.27;7.40;;;9.60;99.90;;;;;;5032925;28;20025;-39
2024/02/11 09:00:43;;;;;;;14.27;7.53;;;9.60;99.90;;;;;;5032874;28;20022;-39
2024/02/11 09:03:09;;;;;;;14.93;6.60;;;9.70;99.90;;;;;;5027408;28;20378;-45
2024/02/11 09:05:34;;;;;;;12.40;7.32;;;9.70;99.90;;;;;;5032277;28;20060;-39
2024/02/11 09:08:00;;;;;;;12.63;6.78;;;9.70;99.90;;;;;;5015419;28;20124;-41
2024/02/11 09:10:25;;;;;;;10.57;6.88;;;9.80;99.90;;;;;;5032362;28;20044;-39
2024/02/11 09:12:51;;;;;;;14.25;7.20;;;9.90;99.90;;;;;;5014749;28;20387;-38
2024/02/11 09:15:17;;;;;;;14.13;6.90;;;9.90;99.90;;;;;;5032438;28;20035;-40
2024/02/11 09:17:43;;;;;;;13.93;6.50;;;9.90;99.90;;;;;;5014605;28;20030;-40
2024/02/11 09:20:13;;;;;;;11.25;7.03;;;9.90;99.90;;;;;;5032798;28;20028;-39
2024/02/11 09:22:39;;;;;;;17.95;7.00;;;9.90;99.90;;;;;;5016715;28;20022;-39
2024/02/11 09:25:07;;;;;;;8.43;6.55;;;9.90;99.90;;;;;;5012734;28;20369;-39
2024/02/11 09:27:33;;;;;;;10.48;6.78;;;10.00;99.90;;;;;;5013119;28;20442;-40
2024/02/11 09:29:58;;;;;;;10.70;6.43;;;10.00;99.90;;;;;;5013278;28;20029;-39
2024/02/11 09:32:24;;;;;;;17.50;6.43;;;10.00;99.90;;;;;;5012753;28;20110;-41
2024/02/11 09:34:50;;;;;;;11.65;6.82;;;10.00;99.90;;;;;;5012433;28;20450;-40
2024/02/11 09:37:16;;;;;;;14.50;7.78;;;10.00;99.90;;;;;;5019012;28;20037;-39
2024/02/11 09:39:42;;;;;;;14.80;7.18;;;10.10;99.90;;;;;;5033151;28;20083;-39
2024/02/11 09:42:16;;;;;;;12.02;6.75;;;10.00;99.90;;;;;;5032109;28;20070;-39
2024/02/11 09:44:43;;;;;;;15.10;6.22;;;10.00;99.90;;;;;;5032497;28;20112;-40
2024/02/11 09:47:11;;;;;;;17.98;6.82;;;10.10;99.90;;;;;;5032194;28;20399;-40
2024/02/11 09:49:38;;;;;;;10.48;6.18;;;10.10;99.90;;;;;;5030940;28;20021;-41
2024/02/11 09:52:05;;;;;;;12.07;6.60;;;10.10;99.90;;;;;;5028771;28;20033;-39
2024/02/11 09:54:31;;;;;;;8.07;5.18;;;10.20;99.90;;;;;;5031417;28;20032;-40
2024/02/11 09:56:57;;;;;;;9.07;6.03;;;10.30;99.90;;;;;;5031657;28;20113;-40
2024/02/11 09:59:26;;;;;;;8.07;5.03;;;10.40;99.90;;;;;;5014132;28;20288;-39
2024/02/11 10:01:54;;;;;;;7.20;5.30;;;10.40;99.90;;;;;;5031884;28;20036;-39
2024/02/11 10:04:27;;;;;;;14.30;5.47;;;10.50;99.90;;;;;;5031418;28;20482;-40
2024/02/11 10:06:52;;;;;;;7.82;4.80;;;10.50;99.90;;;;;;5031706;28;20092;-39
2024/02/11 10:09:18;;;;;;;6.15;4.60;;;10.50;99.90;;;;;;5031591;28;20113;-42
2024/02/11 10:11:45;;;;;;;9.07;4.70;;;10.40;99.90;;;;;;5031001;28;20096;-40
2024/02/11 10:14:13;;;;;;;9.88;5.72;;;10.50;99.90;;;;;;5031754;28;20030;-42
2024/02/11 10:16:42;;;;;;;11.65;5.30;;;10.50;99.90;;;;;;5031256;28;20033;-39
2024/02/11 10:19:09;;;;;;;4.40;3.97;;;10.60;99.90;;;;;;5032041;28;20018;-42
2024/02/11 10:21:35;;;;;;;4.82;3.88;;;10.50;99.90;;;;;;5031760;28;20021;-39
2024/02/11 10:24:02;;;;;;;6.32;4.50;;;10.40;99.90;;;;;;5031148;28;20044;-40
2024/02/11 10:26:31;;;;;;;5.53;3.85;;;10.40;99.90;;;;;;5028124;28;20074;-39
2024/02/11 10:28:58;;;;;;;5.00;4.32;;;10.40;99.90;;;;;;4996394;28;20403;-39
2024/02/11 10:31:25;;;;;;;5.07;3.63;;;10.40;99.90;;;;;;5011576;28;20065;-40
2024/02/11 10:33:51;;;;;;;7.75;3.83;;;10.50;99.90;;;;;;5011862;28;20030;-40
2024/02/11 10:36:16;;;;;;;5.97;4.28;;;10.60;99.90;;;;;;5022645;28;20148;-40
2024/02/11 10:38:42;;;;;;;5.78;3.65;;;10.60;99.90;;;;;;5031306;28;20732;-40
2024/02/11 10:41:08;;;;;;;5.95;3.63;;;10.60;99.90;;;;;;5031288;28;20026;-39
2024/02/11 10:43:34;;;;;;;4.43;3.92;;;10.60;99.90;;;;;;5031119;28;20025;-40
2024/02/11 10:46:02;;;;;;;5.40;3.88;;;10.60;99.90;;;;;;5031241;28;20111;-40
2024/02/11 10:48:28;;;;;;;8.27;4.32;;;10.60;99.90;;;;;;5031190;28;20482;-39
2024/02/11 10:51:07;;;;;;;6.63;4.03;;;10.60;99.90;;;;;;5031352;28;20025;-38
2024/02/11 10:53:36;;;;;;;6.05;4.55;;;10.70;99.90;;;;;;5031337;28;20025;-41
2024/02/11 10:56:10;;;;;;;5.15;3.72;;;10.70;99.90;;;;;;5006011;28;20022;-42
2024/02/11 10:58:46;;;;;;;3.60;3.30;;;10.70;99.90;;;;;;4994777;28;20022;-40
2024/02/11 11:01:19;;;;;;;6.50;4.18;;;10.70;99.90;;;;;;5013988;28;20033;-40
2024/02/11 11:03:45;;;;;;;5.13;4.00;;;10.70;99.90;;;;;;5021490;28;20471;-37
2024/02/11 11:06:14;;;;;;;4.97;4.50;;;10.70;99.90;;;;;;5033378;28;20056;-40
2024/02/11 11:08:42;;;;;;;5.03;3.35;;;10.60;99.90;;;;;;5026723;28;20104;-39
2024/02/11 11:11:08;;;;;;;5.43;3.50;;;10.70;99.90;;;;;;5037048;28;20514;-41
2024/02/11 11:13:33;;;;;;;5.10;3.60;;;10.70;99.90;;;;;;5038081;28;20040;-41
2024/02/11 11:16:04;;;;;;;5.18;3.50;;;10.70;99.90;;;;;;5035570;28;20167;-40
2024/02/11 11:18:36;;;;;;;13.95;8.32;;;10.70;99.90;;;;;;5034920;28;20156;-40
2024/02/11 11:21:04;;;;;;;9.32;4.60;;;10.90;99.90;;;;;;5034740;28;20101;-38
2024/02/11 11:23:30;;;;;;;6.25;3.85;;;10.90;99.90;;;;;;5034203;28;20029;-38
2024/02/11 11:25:56;;;;;;;5.18;3.53;;;11.10;99.90;;;;;;5034819;28;20030;-35
2024/02/11 11:28:29;;;;;;;5.50;3.38;;;11.10;99.90;;;;;;5034965;28;20037;-38
2024/02/11 11:30:54;;;;;;;6.70;3.78;;;11.00;99.90;;;;;;5016224;28;20057;-42
2024/02/11 11:33:20;;;;;;;8.20;4.60;;;11.00;99.90;;;;;;5034524;28;20451;-40
2024/02/11 11:35:46;;;;;;;7.13;3.90;;;11.00;99.90;;;;;;5029056;28;20021;-40
2024/02/11 11:38:11;;;;;;;4.65;3.63;;;11.10;99.90;;;;;;5014535;28;20030;-38
2024/02/11 11:40:37;;;;;;;6.68;3.72;;;11.20;99.90;;;;;;5019749;28;20034;-41
2024/02/11 11:43:16;;;;;;;3.95;3.40;;;11.30;99.90;;;;;;5033985;28;20041;-39
2024/02/11 11:45:53;;;;;;;5.38;3.20;;;11.40;99.90;;;;;;5025356;28;20034;-41
2024/02/11 11:48:20;;;;;;;5.68;3.40;;;11.30;99.90;;;;;;5014381;28;20030;-40
2024/02/11 11:51:02;;;;;;;6.15;4.07;;;11.30;99.90;;;;;;5014467;28;20054;-38
2024/02/11 11:53:31;;;;;;;7.35;3.75;;;11.40;99.90;;;;;;5018897;28;20111;-40
2024/02/11 11:56:00;;;;;;;4.35;3.03;;;11.30;99.90;;;;;;5014131;28;20041;-40
2024/02/11 11:58:27;;;;;;;4.70;2.63;;;11.30;99.90;;;;;;5014518;28;20029;-40
2024/02/11 12:01:04;;;;;;;6.10;3.00;;;11.20;99.90;;;;;;5026583;28;20021;-39
2024/02/11 12:03:31;;;;;;;6.82;2.80;;;11.20;99.90;;;;;;5034146;28;20249;-38
2024/02/11 12:05:57;;;;;;;6.43;3.33;;;11.10;99.90;;;;;;5031424;28;20021;-39
2024/02/11 12:08:27;;;;;;;4.50;3.17;;;11.10;99.90;;;;;;5024709;28;20056;-43
2024/02/11 12:11:02;;;;;;;3.95;2.83;;;11.10;99.90;;;;;;5017472;28;20029;-40
2024/02/11 12:13:32;;;;;;;3.97;3.00;;;11.10;99.90;;;;;;5033786;28;20471;-42
2024/02/11 12:16:01;;;;;;;9.50;3.20;;;11.00;99.90;;;;;;5033028;28;20037;-40
2024/02/11 12:18:26;;;;;;;3.97;3.30;;;11.00;99.90;;;;;;5032731;28;20029;-39
2024/02/11 12:20:55;;;;;;;3.67;2.88;;;11.00;99.90;;;;;;5028738;28;20470;-39
2024/02/11 12:23:23;;;;;;;7.05;3.22;;;11.00;99.90;;;;;;5014594;28;20022;-41
2024/02/11 12:25:59;;;;;;;4.97;2.50;;;11.00;99.90;;;;;;5027109;28;20033;-42
2024/02/11 12:28:25;;;;;;;4.95;2.55;;;11.00;99.90;;;;;;5030110;28;20040;-41
2024/02/11 12:30:51;;;;;;;8.65;4.18;;;11.10;99.90;;;;;;5024849;28;20018;-39
2024/02/11 12:33:16;;;;;;;3.85;3.00;;;11.10;99.90;;;;;;5014751;28;20030;-36
2024/02/11 12:35:43;;;;;;;6.65;3.03;;;11.20;99.90;;;;;;5003060;28;20022;-39
2024/02/11 12:38:09;;;;;;;2.80;2.50;;;11.20;99.90;;;;;;5018371;28;20026;-36
2024/02/11 12:40:37;;;;;;;6.03;2.92;;;11.30;99.90;;;;;;5014042;28;20088;-40
2024/02/11 12:43:04;;;;;;;5.32;2.75;;;11.40;99.90;;;;;;5033044;28;20427;-38